sensor_id;sensor_type;location;lat;lon;timestamp;pressure;altitude;pressure_sealevel;temperature;humidity
24762;BME280;12865;51.934;10.330;2023-04-08T00:01:20;99669.50;;;6.23;100.00
24762;BME280;12865;51.934;10.330;2023-04-08T00:04:06;99675.84;;;6.21;100.00
24762;BME280;12865;51.934;10.330;2023-04-08T00:06:53;99676.88;;;6.18;100.00
24762;BME280;12865;51.934;10.330;2023-04-08T00:09:39;99671.75;;;6.29;100.00
24762;BME280;12865;51.934;10.330;2023-04-08T00:12:25;99670.78;;;6.04;100.00
24762;BME280;12865;51.934;10.330;2023-04-08T00:15:11;99664.56;;;6.05;100.00
24762;BME280;12865;51.934;10.330;2023-04-08T00:17:56;99671.78;;;6.03;100.00
24762;BME280;12865;51.934;10.330;2023-04-08T00:20:43;99667.88;;;6.08;100.00
24762;BME280;12865;51.934;10.330;2023-04-08T00:23:28;99660.13;;;6.05;100.00
24762;BME280;12865;51.934;10.330;2023-04-08T00:26:14;99657.88;;;5.99;100.00
24762;BME280;12865;51.934;10.330;2023-04-08T00:29:00;99659.72;;;6.11;100.00
24762;BME280;12865;51.934;10.330;2023-04-08T00:31:45;99658.81;;;5.98;100.00
24762;BME280;12865;51.934;10.330;2023-04-08T00:34:32;99665.09;;;6.10;100.00
24762;BME280;12865;51.934;10.330;2023-04-08T00:37:17;99668.28;;;6.02;100.00
24762;BME280;12865;51.934;10.330;2023-04-08T00:40:04;99676.03;;;5.91;100.00
24762;BME280;12865;51.934;10.330;2023-04-08T00:42:49;99674.72;;;5.84;100.00
24762;BME280;12865;51.934;10.330;2023-04-08T00:45:35;99682.19;;;5.91;100.00
24762;BME280;12865;51.934;10.330;2023-04-08T00:48:21;99682.00;;;5.80;100.00
24762;BME280;12865;51.934;10.330;2023-04-08T00:51:07;99686.06;;;5.86;100.00
24762;BME280;12865;51.934;10.330;2023-04-08T00:53:53;99684.53;;;5.96;100.00
24762;BME280;12865;51.934;10.330;2023-04-08T00:56:39;99684.00;;;5.77;100.00
24762;BME280;12865;51.934;10.330;2023-04-08T00:59:25;99691.84;;;5.78;100.00
24762;BME280;12865;51.934;10.330;2023-04-08T01:02:18;99690.22;;;5.76;100.00
24762;BME280;12865;51.934;10.330;2023-04-08T01:05:10;99692.78;;;5.77;100.00
24762;BME280;12865;51.934;10.330;2023-04-08T01:07:58;99687.03;;;5.71;100.00
24762;BME280;12865;51.934;10.330;2023-04-08T01:10:48;99684.09;;;5.61;100.00
24762;BME280;12865;51.934;10.330;2023-04-08T01:13:39;99687.31;;;5.66;100.00
24762;BME280;12865;51.934;10.330;2023-04-08T01:16:25;99670.09;;;5.46;100.00
24762;BME280;12865;51.934;10.330;2023-04-08T01:19:17;99687.13;;;5.55;100.00
24762;BME280;12865;51.934;10.330;2023-04-08T01:25:13;99673.16;;;5.67;100.00
24762;BME280;12865;51.934;10.330;2023-04-08T01:28:06;99674.06;;;5.39;100.00
24762;BME280;12865;51.934;10.330;2023-04-08T01:30:56;99668.00;;;5.51;100.00
24762;BME280;12865;51.934;10.330;2023-04-08T01:33:43;99669.97;;;5.48;100.00
24762;BME280;12865;51.934;10.330;2023-04-08T01:36:29;99675.00;;;5.38;100.00
24762;BME280;12865;51.934;10.330;2023-04-08T01:39:18;99673.22;;;5.39;100.00
24762;BME280;12865;51.934;10.330;2023-04-08T01:42:07;99677.53;;;5.40;100.00
24762;BME280;12865;51.934;10.330;2023-04-08T01:44:55;99677.81;;;5.49;100.00
24762;BME280;12865;51.934;10.330;2023-04-08T01:47:45;99682.72;;;5.41;100.00
24762;BME280;12865;51.934;10.330;2023-04-08T01:50:33;99675.66;;;5.42;100.00
24762;BME280;12865;51.934;10.330;2023-04-08T01:53:19;99677.72;;;5.51;100.00
24762;BME280;12865;51.934;10.330;2023-04-08T01:56:09;99671.41;;;5.53;100.00
24762;BME280;12865;51.934;10.330;2023-04-08T01:58:57;99669.00;;;5.63;100.00
24762;BME280;12865;51.934;10.330;2023-04-08T02:01:46;99669.47;;;5.56;100.00
24762;BME280;12865;51.934;10.330;2023-04-08T02:04:33;99671.69;;;5.76;100.00
24762;BME280;12865;51.934;10.330;2023-04-08T02:07:19;99670.34;;;5.42;100.00
24762;BME280;12865;51.934;10.330;2023-04-08T02:10:05;99669.56;;;5.54;100.00
24762;BME280;12865;51.934;10.330;2023-04-08T02:12:51;99680.00;;;5.43;100.00
24762;BME280;12865;51.934;10.330;2023-04-08T02:15:41;99683.94;;;5.50;100.00
24762;BME280;12865;51.934;10.330;2023-04-08T02:18:33;99679.91;;;5.44;100.00
24762;BME280;12865;51.934;10.330;2023-04-08T02:21:21;99671.28;;;5.55;100.00
24762;BME280;12865;51.934;10.330;2023-04-08T02:24:12;99675.19;;;5.35;100.00
24762;BME280;12865;51.934;10.330;2023-04-08T02:27:01;99669.50;;;5.41;100.00
24762;BME280;12865;51.934;10.330;2023-04-08T02:29:48;99677.53;;;5.40;100.00
24762;BME280;12865;51.934;10.330;2023-04-08T02:32:35;99677.81;;;5.35;100.00
24762;BME280;12865;51.934;10.330;2023-04-08T02:35:22;99684.03;;;5.48;100.00
24762;BME280;12865;51.934;10.330;2023-04-08T02:38:08;99691.78;;;5.51;100.00
24762;BME280;12865;51.934;10.330;2023-04-08T02:40:54;99692.34;;;5.57;100.00
24762;BME280;12865;51.934;10.330;2023-04-08T02:43:40;99697.09;;;5.37;100.00
24762;BME280;12865;51.934;10.330;2023-04-08T02:46:26;99704.09;;;5.38;100.00
24762;BME280;12865;51.934;10.330;2023-04-08T02:49:11;99695.69;;;5.32;100.00
24762;BME280;12865;51.934;10.330;2023-04-08T02:51:57;99687.63;;;5.19;100.00
24762;BME280;12865;51.934;10.330;2023-04-08T02:54:43;99692.56;;;5.25;100.00
24762;BME280;12865;51.934;10.330;2023-04-08T02:57:28;99692.56;;;5.25;100.00
24762;BME280;12865;51.934;10.330;2023-04-08T03:00:14;99692.56;;;5.25;100.00
24762;BME280;12865;51.934;10.330;2023-04-08T03:03:00;99698.41;;;5.30;100.00
24762;BME280;12865;51.934;10.330;2023-04-08T03:05:46;99700.47;;;5.53;100.00
24762;BME280;12865;51.934;10.330;2023-04-08T03:08:32;99697.56;;;5.44;100.00
24762;BME280;12865;51.934;10.330;2023-04-08T03:11:18;99696.41;;;5.34;100.00
24762;BME280;12865;51.934;10.330;2023-04-08T03:14:04;99698.03;;;5.36;100.00
24762;BME280;12865;51.934;10.330;2023-04-08T03:16:49;99706.91;;;5.35;100.00
24762;BME280;12865;51.934;10.330;2023-04-08T03:19:35;99710.22;;;5.39;100.00
24762;BME280;12865;51.934;10.330;2023-04-08T03:22:21;99707.09;;;5.46;100.00
24762;BME280;12865;51.934;10.330;2023-04-08T03:25:08;99709.53;;;5.35;100.00
24762;BME280;12865;51.934;10.330;2023-04-08T03:27:54;99713.72;;;5.39;100.00
24762;BME280;12865;51.934;10.330;2023-04-08T03:30:40;99714.44;;;5.41;100.00
24762;BME280;12865;51.934;10.330;2023-04-08T03:33:25;99714.28;;;5.30;100.00
24762;BME280;12865;51.934;10.330;2023-04-08T03:36:11;99721.44;;;5.28;100.00
24762;BME280;12865;51.934;10.330;2023-04-08T03:38:57;99711.41;;;5.19;100.00
24762;BME280;12865;51.934;10.330;2023-04-08T03:41:43;99706.44;;;5.14;100.00
24762;BME280;12865;51.934;10.330;2023-04-08T03:44:29;99713.72;;;5.25;100.00
24762;BME280;12865;51.934;10.330;2023-04-08T03:47:14;99718.03;;;5.40;100.00
24762;BME280;12865;51.934;10.330;2023-04-08T03:50:00;99717.94;;;5.28;100.00
24762;BME280;12865;51.934;10.330;2023-04-08T03:52:45;99705.66;;;5.27;100.00
24762;BME280;12865;51.934;10.330;2023-04-08T03:55:31;99709.00;;;5.30;100.00
24762;BME280;12865;51.934;10.330;2023-04-08T03:58:17;99710.69;;;5.31;100.00
24762;BME280;12865;51.934;10.330;2023-04-08T04:01:03;99705.03;;;5.37;100.00
24762;BME280;12865;51.934;10.330;2023-04-08T04:03:48;99713.03;;;5.22;100.00
24762;BME280;12865;51.934;10.330;2023-04-08T04:06:34;99716.91;;;5.16;100.00
24762;BME280;12865;51.934;10.330;2023-04-08T04:09:20;99715.59;;;5.09;100.00
24762;BME280;12865;51.934;10.330;2023-04-08T04:12:05;99717.31;;;5.24;100.00
24762;BME280;12865;51.934;10.330;2023-04-08T04:14:51;99728.53;;;5.28;100.00
24762;BME280;12865;51.934;10.330;2023-04-08T04:17:36;99736.44;;;5.28;100.00
24762;BME280;12865;51.934;10.330;2023-04-08T04:20:22;99730.91;;;5.18;100.00
24762;BME280;12865;51.934;10.330;2023-04-08T04:23:08;99729.56;;;5.25;100.00
24762;BME280;12865;51.934;10.330;2023-04-08T04:25:54;99732.78;;;5.16;100.00
24762;BME280;12865;51.934;10.330;2023-04-08T04:28:40;99725.97;;;5.12;100.00
24762;BME280;12865;51.934;10.330;2023-04-08T04:31:25;99733.72;;;5.15;100.00
24762;BME280;12865;51.934;10.330;2023-04-08T04:34:11;99741.63;;;5.01;100.00
24762;BME280;12865;51.934;10.330;2023-04-08T04:36:57;99739.16;;;4.98;100.00
24762;BME280;12865;51.934;10.330;2023-04-08T04:39:43;99746.06;;;5.14;100.00
24762;BME280;12865;51.934;10.330;2023-04-08T04:42:29;99748.59;;;5.02;100.00
24762;BME280;12865;51.934;10.330;2023-04-08T04:45:15;99746.06;;;5.14;100.00
24762;BME280;12865;51.934;10.330;2023-04-08T04:48:00;99754.09;;;5.13;100.00
24762;BME280;12865;51.934;10.330;2023-04-08T04:50:55;99760.81;;;5.04;100.00
24762;BME280;12865;51.934;10.330;2023-04-08T04:53:41;99755.84;;;4.98;100.00
24762;BME280;12865;51.934;10.330;2023-04-08T04:56:26;99753.59;;;5.06;100.00
24762;BME280;12865;51.934;10.330;2023-04-08T04:59:12;99762.47;;;5.05;100.00
24762;BME280;12865;51.934;10.330;2023-04-08T05:01:57;99762.31;;;5.08;100.00
24762;BME280;12865;51.934;10.330;2023-04-08T05:04:43;99758.25;;;5.17;100.00
24762;BME280;12865;51.934;10.330;2023-04-08T05:07:29;99758.88;;;5.06;100.00
24762;BME280;12865;51.934;10.330;2023-04-08T05:10:14;99759.56;;;5.10;100.00
24762;BME280;12865;51.934;10.330;2023-04-08T05:13:00;99771.22;;;4.92;100.00
24762;BME280;12865;51.934;10.330;2023-04-08T05:15:46;99769.38;;;5.08;100.00
24762;BME280;12865;51.934;10.330;2023-04-08T05:18:32;99769.47;;;5.21;100.00
24762;BME280;12865;51.934;10.330;2023-04-08T05:21:18;99772.50;;;5.14;100.00
24762;BME280;12865;51.934;10.330;2023-04-08T05:24:03;99776.66;;;5.04;100.00
24762;BME280;12865;51.934;10.330;2023-04-08T05:26:49;99779.38;;;5.03;100.00
24762;BME280;12865;51.934;10.330;2023-04-08T05:29:37;99785.63;;;5.16;100.00
24762;BME280;12865;51.934;10.330;2023-04-08T05:32:23;99790.91;;;5.16;100.00
24762;BME280;12865;51.934;10.330;2023-04-08T05:35:09;99783.63;;;5.05;100.00
24762;BME280;12865;51.934;10.330;2023-04-08T05:37:54;99778.31;;;5.05;100.00
24762;BME280;12865;51.934;10.330;2023-04-08T05:40:40;99782.44;;;5.11;100.00
24762;BME280;12865;51.934;10.330;2023-04-08T05:43:26;99777.13;;;5.11;100.00
24762;BME280;12865;51.934;10.330;2023-04-08T05:46:12;99779.88;;;5.09;100.00
24762;BME280;12865;51.934;10.330;2023-04-08T05:48:57;99775.72;;;5.20;100.00
24762;BME280;12865;51.934;10.330;2023-04-08T05:51:43;99779.31;;;5.19;100.00
24762;BME280;12865;51.934;10.330;2023-04-08T05:54:29;99788.56;;;5.11;100.00
24762;BME280;12865;51.934;10.330;2023-04-08T05:57:15;99790.06;;;5.16;100.00
24762;BME280;12865;51.934;10.330;2023-04-08T06:00:02;99794.22;;;5.20;100.00
24762;BME280;12865;51.934;10.330;2023-04-08T06:02:48;99789.41;;;5.26;100.00
24762;BME280;12865;51.934;10.330;2023-04-08T06:05:33;99800.09;;;5.25;100.00
24762;BME280;12865;51.934;10.330;2023-04-08T06:08:19;99806.44;;;5.36;100.00
24762;BME280;12865;51.934;10.330;2023-04-08T06:11:06;99806.22;;;5.25;100.00
24762;BME280;12865;51.934;10.330;2023-04-08T06:13:52;99807.38;;;5.35;100.00
24762;BME280;12865;51.934;10.330;2023-04-08T06:16:37;99818.22;;;5.31;100.00
24762;BME280;12865;51.934;10.330;2023-04-08T06:19:23;99817.47;;;5.43;100.00
24762;BME280;12865;51.934;10.330;2023-04-08T06:22:09;99820.78;;;5.32;100.00
24762;BME280;12865;51.934;10.330;2023-04-08T06:24:55;99834.66;;;5.36;100.00
24762;BME280;12865;51.934;10.330;2023-04-08T06:27:40;99827.94;;;5.30;100.00
24762;BME280;12865;51.934;10.330;2023-04-08T06:30:26;99826.31;;;5.28;100.00
24762;BME280;12865;51.934;10.330;2023-04-08T06:33:12;99828.34;;;5.38;100.00
24762;BME280;12865;51.934;10.330;2023-04-08T06:36:06;99832.41;;;5.44;100.00
24762;BME280;12865;51.934;10.330;2023-04-08T06:38:52;99831.06;;;5.37;100.00
24762;BME280;12865;51.934;10.330;2023-04-08T06:41:37;99831.09;;;5.51;100.00
24762;BME280;12865;51.934;10.330;2023-04-08T06:44:23;99834.59;;;5.66;100.00
24762;BME280;12865;51.934;10.330;2023-04-08T06:47:09;99832.72;;;5.53;100.00
24762;BME280;12865;51.934;10.330;2023-04-08T06:49:55;99841.69;;;5.65;100.00
24762;BME280;12865;51.934;10.330;2023-04-08T06:52:41;99850.25;;;5.54;100.00
24762;BME280;12865;51.934;10.330;2023-04-08T06:55:27;99859.81;;;5.57;100.00
24762;BME280;12865;51.934;10.330;2023-04-08T06:58:12;99847.25;;;5.61;100.00
24762;BME280;12865;51.934;10.330;2023-04-08T07:00:59;99853.19;;;5.50;100.00
24762;BME280;12865;51.934;10.330;2023-04-08T07:03:45;99852.41;;;5.48;100.00
24762;BME280;12865;51.934;10.330;2023-04-08T07:06:31;99855.56;;;5.69;100.00
24762;BME280;12865;51.934;10.330;2023-04-08T07:09:17;99857.75;;;5.76;100.00
24762;BME280;12865;51.934;10.330;2023-04-08T07:12:02;99856.78;;;5.63;100.00
24762;BME280;12865;51.934;10.330;2023-04-08T07:14:49;99860.75;;;5.70;100.00
24762;BME280;12865;51.934;10.330;2023-04-08T07:17:35;99861.06;;;5.80;100.00
24762;BME280;12865;51.934;10.330;2023-04-08T07:20:22;99861.78;;;5.68;100.00
24762;BME280;12865;51.934;10.330;2023-04-08T07:23:07;99858.22;;;5.83;100.00
24762;BME280;12865;51.934;10.330;2023-04-08T07:25:53;99863.88;;;5.77;100.00
24762;BME280;12865;51.934;10.330;2023-04-08T07:28:39;99867.28;;;5.65;100.00
24762;BME280;12865;51.934;10.330;2023-04-08T07:31:25;99864.94;;;5.74;100.00
24762;BME280;12865;51.934;10.330;2023-04-08T07:34:11;99869.72;;;5.82;100.00
24762;BME280;12865;51.934;10.330;2023-04-08T07:36:57;99869.84;;;5.66;100.00
24762;BME280;12865;51.934;10.330;2023-04-08T07:39:43;99871.81;;;5.63;100.00
24762;BME280;12865;51.934;10.330;2023-04-08T07:42:28;99874.00;;;5.70;100.00
24762;BME280;12865;51.934;10.330;2023-04-08T07:45:14;99875.78;;;5.70;100.00
24762;BME280;12865;51.934;10.330;2023-04-08T07:48:00;99887.41;;;5.67;100.00
24762;BME280;12865;51.934;10.330;2023-04-08T07:50:46;99887.41;;;5.67;100.00
24762;BME280;12865;51.934;10.330;2023-04-08T07:53:32;99887.59;;;5.64;100.00
24762;BME280;12865;51.934;10.330;2023-04-08T07:56:18;99889.41;;;5.78;100.00
24762;BME280;12865;51.934;10.330;2023-04-08T07:59:05;99884.88;;;5.80;100.00
24762;BME280;12865;51.934;10.330;2023-04-08T08:01:51;99901.19;;;5.88;100.00
24762;BME280;12865;51.934;10.330;2023-04-08T08:04:36;99903.41;;;5.80;100.00
24762;BME280;12865;51.934;10.330;2023-04-08T08:07:22;99897.56;;;5.89;100.00
24762;BME280;12865;51.934;10.330;2023-04-08T08:10:08;99901.69;;;5.79;100.00
24762;BME280;12865;51.934;10.330;2023-04-08T08:12:54;99900.97;;;5.91;100.00
24762;BME280;12865;51.934;10.330;2023-04-08T08:15:40;99908.59;;;5.81;100.00
24762;BME280;12865;51.934;10.330;2023-04-08T08:18:26;99903.81;;;6.02;100.00
24762;BME280;12865;51.934;10.330;2023-04-08T08:21:11;99906.81;;;5.96;100.00
24762;BME280;12865;51.934;10.330;2023-04-08T08:23:57;99906.94;;;5.95;100.00
24762;BME280;12865;51.934;10.330;2023-04-08T08:26:44;99912.91;;;5.82;100.00
24762;BME280;12865;51.934;10.330;2023-04-08T08:29:34;99912.63;;;5.88;100.00
24762;BME280;12865;51.934;10.330;2023-04-08T08:32:25;99918.91;;;5.86;100.00
24762;BME280;12865;51.934;10.330;2023-04-08T08:35:10;99913.25;;;5.92;100.00
24762;BME280;12865;51.934;10.330;2023-04-08T08:37:56;99925.72;;;5.90;100.00
24762;BME280;12865;51.934;10.330;2023-04-08T08:40:42;99932.72;;;5.91;100.00
24762;BME280;12865;51.934;10.330;2023-04-08T08:43:28;99926.50;;;6.06;100.00
24762;BME280;12865;51.934;10.330;2023-04-08T08:46:17;99933.28;;;6.10;100.00
24762;BME280;12865;51.934;10.330;2023-04-08T08:49:03;99939.19;;;6.01;100.00
24762;BME280;12865;51.934;10.330;2023-04-08T08:51:49;99933.88;;;6.01;100.00
24762;BME280;12865;51.934;10.330;2023-04-08T08:54:35;99939.09;;;6.03;100.00
24762;BME280;12865;51.934;10.330;2023-04-08T08:57:21;99940.69;;;6.05;100.00
24762;BME280;12865;51.934;10.330;2023-04-08T09:00:07;99945.03;;;6.20;100.00
24762;BME280;12865;51.934;10.330;2023-04-08T09:02:53;99943.63;;;6.15;100.00
24762;BME280;12865;51.934;10.330;2023-04-08T09:08:37;99937.28;;;6.17;100.00
24762;BME280;12865;51.934;10.330;2023-04-08T09:11:22;99942.94;;;6.25;100.00
24762;BME280;12865;51.934;10.330;2023-04-08T09:14:22;99935.31;;;6.21;100.00
24762;BME280;12865;51.934;10.330;2023-04-08T09:17:08;99947.69;;;6.35;100.00
24762;BME280;12865;51.934;10.330;2023-04-08T09:20:04;99946.66;;;6.37;100.00
24762;BME280;12865;51.934;10.330;2023-04-08T09:22:59;99949.56;;;6.47;100.00
24762;BME280;12865;51.934;10.330;2023-04-08T09:25:45;99960.84;;;6.36;100.00
24762;BME280;12865;51.934;10.330;2023-04-08T09:28:30;99963.56;;;6.35;100.00
24762;BME280;12865;51.934;10.330;2023-04-08T09:31:30;99968.56;;;6.39;100.00
24762;BME280;12865;51.934;10.330;2023-04-08T09:34:16;99978.13;;;6.42;100.00
24762;BME280;12865;51.934;10.330;2023-04-08T09:37:05;99980.97;;;6.53;100.00
24762;BME280;12865;51.934;10.330;2023-04-08T09:39:51;99982.03;;;6.50;100.00
24762;BME280;12865;51.934;10.330;2023-04-08T09:42:39;99977.56;;;6.51;100.00
24762;BME280;12865;51.934;10.330;2023-04-08T09:45:26;99978.78;;;6.59;100.00
24762;BME280;12865;51.934;10.330;2023-04-08T09:48:16;99980.00;;;6.54;100.00
24762;BME280;12865;51.934;10.330;2023-04-08T09:51:03;99977.09;;;6.58;100.00
24762;BME280;12865;51.934;10.330;2023-04-08T09:53:55;99973.38;;;6.61;100.00
24762;BME280;12865;51.934;10.330;2023-04-08T09:56:50;99982.25;;;6.74;100.00
24762;BME280;12865;51.934;10.330;2023-04-08T09:59:46;99977.66;;;6.63;100.00
24762;BME280;12865;51.934;10.330;2023-04-08T10:05:42;99981.78;;;6.82;100.00
24762;BME280;12865;51.934;10.330;2023-04-08T10:08:29;99988.47;;;6.87;100.00
24762;BME280;12865;51.934;10.330;2023-04-08T10:11:16;99992.09;;;6.86;100.00
24762;BME280;12865;51.934;10.330;2023-04-08T10:14:02;99984.88;;;6.88;100.00
24762;BME280;12865;51.934;10.330;2023-04-08T10:16:47;99987.34;;;6.91;100.00
24762;BME280;12865;51.934;10.330;2023-04-08T10:19:38;99983.56;;;6.81;100.00
24762;BME280;12865;51.934;10.330;2023-04-08T10:30:56;99985.72;;;7.03;100.00
24762;BME280;12865;51.934;10.330;2023-04-08T10:33:42;99987.50;;;7.02;100.00
24762;BME280;12865;51.934;10.330;2023-04-08T10:36:28;99991.81;;;7.18;100.00
24762;BME280;12865;51.934;10.330;2023-04-08T10:39:15;99984.38;;;7.10;100.00
24762;BME280;12865;51.934;10.330;2023-04-08T10:42:01;99991.00;;;7.03;100.00
24762;BME280;12865;51.934;10.330;2023-04-08T10:44:47;99993.34;;;7.22;100.00
24762;BME280;12865;51.934;10.330;2023-04-08T10:47:32;99996.97;;;7.06;100.00
24762;BME280;12865;51.934;10.330;2023-04-08T10:50:19;99995.47;;;7.02;100.00
24762;BME280;12865;51.934;10.330;2023-04-08T10:53:05;100003.78;;;7.10;100.00
24762;BME280;12865;51.934;10.330;2023-04-08T10:55:51;100010.25;;;7.06;100.00
24762;BME280;12865;51.934;10.330;2023-04-08T10:58:54;100011.00;;;6.94;100.00
24762;BME280;12865;51.934;10.330;2023-04-08T11:01:41;100007.97;;;7.00;100.00
24762;BME280;12865;51.934;10.330;2023-04-08T11:04:29;100004.34;;;7.01;100.00
24762;BME280;12865;51.934;10.330;2023-04-08T11:07:14;100010.34;;;7.05;100.00
24762;BME280;12865;51.934;10.330;2023-04-08T11:10:03;100009.13;;;7.23;100.00
24762;BME280;12865;51.934;10.330;2023-04-08T11:12:49;100010.66;;;7.27;100.00
24762;BME280;12865;51.934;10.330;2023-04-08T11:15:35;100011.91;;;7.22;100.00
24762;BME280;12865;51.934;10.330;2023-04-08T11:18:21;100016.06;;;7.26;100.00
24762;BME280;12865;51.934;10.330;2023-04-08T11:21:11;100013.00;;;7.32;100.00
24762;BME280;12865;51.934;10.330;2023-04-08T11:23:57;100010.13;;;7.08;100.00
24762;BME280;12865;51.934;10.330;2023-04-08T11:26:42;100006.66;;;7.07;100.00
24762;BME280;12865;51.934;10.330;2023-04-08T11:29:28;100006.53;;;7.09;100.00
24762;BME280;12865;51.934;10.330;2023-04-08T11:32:14;100009.03;;;7.25;100.00
24762;BME280;12865;51.934;10.330;2023-04-08T11:35:03;100008.94;;;7.26;100.00
24762;BME280;12865;51.934;10.330;2023-04-08T11:37:51;100010.25;;;7.33;100.00
24762;BME280;12865;51.934;10.330;2023-04-08T11:40:37;100013.94;;;7.31;100.00
24762;BME280;12865;51.934;10.330;2023-04-08T11:43:23;100015.06;;;7.41;100.00
24762;BME280;12865;51.934;10.330;2023-04-08T11:46:09;100018.50;;;7.56;100.00
24762;BME280;12865;51.934;10.330;2023-04-08T11:49:04;100009.31;;;7.74;100.00
24762;BME280;12865;51.934;10.330;2023-04-08T11:51:57;100011.06;;;7.48;100.00
24762;BME280;12865;51.934;10.330;2023-04-08T11:57:11;100014.38;;;7.10;100.00
24762;BME280;12865;51.934;10.330;2023-04-08T11:59:57;100014.84;;;7.17;100.00
24762;BME280;12865;51.934;10.330;2023-04-08T12:02:42;100017.22;;;7.22;100.00
24762;BME280;12865;51.934;10.330;2023-04-08T12:05:28;100017.31;;;7.20;100.00
24762;BME280;12865;51.934;10.330;2023-04-08T12:08:14;100016.19;;;7.10;100.00
24762;BME280;12865;51.934;10.330;2023-04-08T12:11:00;100016.66;;;7.02;100.00
24762;BME280;12865;51.934;10.330;2023-04-08T12:13:45;100025.84;;;7.11;100.00
24762;BME280;12865;51.934;10.330;2023-04-08T12:16:31;100023.97;;;6.99;100.00
24762;BME280;12865;51.934;10.330;2023-04-08T12:19:17;100023.19;;;7.11;100.00
24762;BME280;12865;51.934;10.330;2023-04-08T12:22:02;100026.16;;;7.06;100.00
24762;BME280;12865;51.934;10.330;2023-04-08T12:24:48;100019.09;;;7.20;100.00
24762;BME280;12865;51.934;10.330;2023-04-08T12:27:34;100021.94;;;7.17;100.00
24762;BME280;12865;51.934;10.330;2023-04-08T12:30:20;100022.97;;;7.28;100.00
24762;BME280;12865;51.934;10.330;2023-04-08T12:33:05;100022.72;;;7.45;100.00
24762;BME280;12865;51.934;10.330;2023-04-08T12:35:51;100014.28;;;7.66;100.00
24762;BME280;12865;51.934;10.330;2023-04-08T12:38:38;100014.53;;;7.75;100.00
24762;BME280;12865;51.934;10.330;2023-04-08T12:41:24;100015.91;;;7.81;100.00
24762;BME280;12865;51.934;10.330;2023-04-08T12:44:09;100018.44;;;7.70;100.00
24762;BME280;12865;51.934;10.330;2023-04-08T12:46:55;100018.19;;;7.60;100.00
24762;BME280;12865;51.934;10.330;2023-04-08T12:49:42;100021.19;;;7.68;100.00
24762;BME280;12865;51.934;10.330;2023-04-08T12:52:28;100020.66;;;7.63;100.00
24762;BME280;12865;51.934;10.330;2023-04-08T12:55:14;100027.97;;;7.60;100.00
24762;BME280;12865;51.934;10.330;2023-04-08T12:58:00;100022.56;;;7.61;100.00
24762;BME280;12865;51.934;10.330;2023-04-08T13:00:46;100029.56;;;7.62;100.00
24762;BME280;12865;51.934;10.330;2023-04-08T13:03:32;100027.25;;;7.43;100.00
24762;BME280;12865;51.934;10.330;2023-04-08T13:06:19;100021.84;;;7.45;100.00
24762;BME280;12865;51.934;10.330;2023-04-08T13:09:05;100028.47;;;7.52;100.00
24762;BME280;12865;51.934;10.330;2023-04-08T13:11:50;100024.69;;;7.56;100.00
24762;BME280;12865;51.934;10.330;2023-04-08T13:14:37;100021.16;;;7.56;100.00
24762;BME280;12865;51.934;10.330;2023-04-08T13:17:22;100019.84;;;7.75;100.00
24762;BME280;12865;51.934;10.330;2023-04-08T13:20:08;100025.75;;;7.66;100.00
24762;BME280;12865;51.934;10.330;2023-04-08T13:22:55;100029.16;;;7.68;100.00
24762;BME280;12865;51.934;10.330;2023-04-08T13:25:40;100028.38;;;7.54;100.00
24762;BME280;12865;51.934;10.330;2023-04-08T13:28:26;100017.50;;;7.71;100.00
24762;BME280;12865;51.934;10.330;2023-04-08T13:31:12;100034.00;;;7.49;100.00
24762;BME280;12865;51.934;10.330;2023-04-08T13:33:57;100022.56;;;7.61;100.00
24762;BME280;12865;51.934;10.330;2023-04-08T13:36:43;100019.16;;;7.59;100.00
24762;BME280;12865;51.934;10.330;2023-04-08T13:39:29;100014.53;;;7.75;100.00
24762;BME280;12865;51.934;10.330;2023-04-08T13:42:14;100028.78;;;7.87;100.00
24762;BME280;12865;51.934;10.330;2023-04-08T13:45:00;100025.16;;;7.88;100.00
24762;BME280;12865;51.934;10.330;2023-04-08T13:47:46;100017.94;;;7.77;100.00
24762;BME280;12865;51.934;10.330;2023-04-08T13:50:32;100020.19;;;7.83;100.00
24762;BME280;12865;51.934;10.330;2023-04-08T13:53:17;100021.75;;;7.86;100.00
24762;BME280;12865;51.934;10.330;2023-04-08T13:56:03;100018.25;;;7.85;100.00
24762;BME280;12865;51.934;10.330;2023-04-08T13:58:49;100018.06;;;8.01;100.00
24762;BME280;12865;51.934;10.330;2023-04-08T14:01:35;100019.47;;;8.07;100.00
24762;BME280;12865;51.934;10.330;2023-04-08T14:04:20;100019.69;;;8.16;100.00
24762;BME280;12865;51.934;10.330;2023-04-08T14:07:06;100025.84;;;8.17;100.00
24762;BME280;12865;51.934;10.330;2023-04-08T14:09:52;100015.34;;;8.15;100.00
24762;BME280;12865;51.934;10.330;2023-04-08T14:12:37;100026.56;;;8.33;100.00
24762;BME280;12865;51.934;10.330;2023-04-08T14:15:23;100018.75;;;8.30;100.00
24762;BME280;12865;51.934;10.330;2023-04-08T14:18:09;100026.19;;;8.12;100.00
24762;BME280;12865;51.934;10.330;2023-04-08T14:20:54;100022.69;;;8.24;100.00
24762;BME280;12865;51.934;10.330;2023-04-08T14:23:40;100021.81;;;8.24;100.00
24762;BME280;12865;51.934;10.330;2023-04-08T14:26:27;100024.41;;;8.51;100.00
24762;BME280;12865;51.934;10.330;2023-04-08T14:29:12;100025.00;;;8.29;100.00
24762;BME280;12865;51.934;10.330;2023-04-08T14:31:58;100039.84;;;8.33;100.00
24762;BME280;12865;51.934;10.330;2023-04-08T14:34:44;100031.00;;;8.45;100.00
24762;BME280;12865;51.934;10.330;2023-04-08T14:37:29;100031.75;;;8.47;100.00
24762;BME280;12865;51.934;10.330;2023-04-08T14:40:15;100033.34;;;8.50;100.00
24762;BME280;12865;51.934;10.330;2023-04-08T14:43:01;100036.94;;;8.49;100.00
24762;BME280;12865;51.934;10.330;2023-04-08T14:45:48;100038.44;;;8.40;100.00
24762;BME280;12865;51.934;10.330;2023-04-08T14:48:34;100035.66;;;8.42;100.00